Time;durP1;ratioP1;P1;durP2;ratioP2;P2;SDS_P1;SDS_P2;PMS_P1;PMS_P2;Temp;Humidity;BMP_temperature;BMP_pressure;BME280_temperature;BME280_humidity;BME280_pressure;Samples;Min_cycle;Max_cycle;Signal;HPM_P1;HPM_P2
2023/11/13 00:02:16;;;;;;;9.00;7.07;;;7.70;98.70;;;;;;4977106;28;20825;-69
2023/11/13 00:04:45;;;;;;;10.97;7.50;;;7.70;98.80;;;;;;4977283;28;20489;-69
2023/11/13 00:07:13;;;;;;;11.43;6.83;;;7.80;99.40;;;;;;4977821;28;20481;-69
2023/11/13 00:09:40;;;;;;;8.10;6.77;;;7.80;99.20;;;;;;4976989;28;20480;-69
2023/11/13 00:12:08;;;;;;;10.30;7.40;;;7.80;99.30;;;;;;4977015;28;20453;-69
2023/11/13 00:14:38;;;;;;;10.10;7.27;;;7.80;99.40;;;;;;4985973;28;20535;-70
2023/11/13 00:17:05;;;;;;;9.50;6.80;;;7.90;99.60;;;;;;4980922;28;20501;-68
2023/11/13 00:19:32;;;;;;;9.80;6.90;;;7.90;99.70;;;;;;4979871;28;20477;-69
2023/11/13 00:22:02;;;;;;;8.80;7.07;;;7.90;99.80;;;;;;4979357;28;20452;-69
2023/11/13 00:24:29;;;;;;;8.13;5.73;;;7.90;99.90;;;;;;4981706;28;20839;-69
2023/11/13 00:26:59;;;;;;;13.40;7.90;;;7.90;99.90;;;;;;4992436;28;20449;-69
2023/11/13 00:29:25;;;;;;;6.33;5.50;;;7.90;99.90;;;;;;4982480;28;20987;-69
2023/11/13 00:31:53;;;;;;;8.80;6.20;;;7.90;99.90;;;;;;4980245;28;20801;-69
2023/11/13 00:34:20;;;;;;;7.87;5.80;;;7.90;99.90;;;;;;4979078;28;20445;-69
2023/11/13 00:36:50;;;;;;;7.60;6.77;;;7.90;99.90;;;;;;4977631;28;20795;-69
2023/11/13 00:39:23;;;;;;;8.20;6.37;;;7.90;99.90;;;;;;4976233;28;20473;-70
2023/11/13 00:41:50;;;;;;;8.07;6.30;;;7.90;99.90;;;;;;4976602;28;20528;-69
2023/11/13 00:44:17;;;;;;;12.27;6.73;;;8.00;99.90;;;;;;4978087;28;20492;-69
2023/11/13 00:46:45;;;;;;;11.47;6.63;;;8.00;99.90;;;;;;4976745;28;20461;-70
2023/11/13 00:49:14;;;;;;;8.13;6.00;;;8.00;99.90;;;;;;4976626;28;20481;-69
2023/11/13 00:51:41;;;;;;;7.87;5.27;;;8.00;99.90;;;;;;4976143;28;20449;-69
2023/11/13 00:54:08;;;;;;;8.97;5.73;;;8.00;99.90;;;;;;4976717;28;20446;-70
2023/11/13 00:56:38;;;;;;;6.57;5.57;;;8.00;99.90;;;;;;4977355;28;20448;-69
2023/11/13 00:59:05;;;;;;;11.50;5.10;;;8.00;99.90;;;;;;4975698;28;20471;-69
2023/11/13 01:01:32;;;;;;;6.30;5.53;;;8.10;99.90;;;;;;4975299;28;20450;-69
2023/11/13 01:04:00;;;;;;;9.30;5.63;;;8.10;99.90;;;;;;4975611;28;20465;-69
2023/11/13 01:06:26;;;;;;;8.30;6.03;;;8.10;99.90;;;;;;4980208;28;20456;-69
2023/11/13 01:08:55;;;;;;;7.30;6.13;;;8.10;99.90;;;;;;4985194;28;20468;-69
2023/11/13 01:11:22;;;;;;;7.07;6.30;;;8.10;99.90;;;;;;4996700;28;20449;-69
2023/11/13 01:13:50;;;;;;;7.37;5.40;;;8.10;99.90;;;;;;4990113;28;20536;-69
2023/11/13 01:16:19;;;;;;;7.17;6.43;;;8.20;99.90;;;;;;4987904;28;20441;-69
2023/11/13 01:18:47;;;;;;;7.33;6.60;;;8.20;99.90;;;;;;4985565;28;20460;-69
2023/11/13 01:21:15;;;;;;;7.53;5.77;;;8.20;99.90;;;;;;4986396;28;20452;-69
2023/11/13 01:23:41;;;;;;;5.40;4.90;;;8.20;99.90;;;;;;4985605;28;20497;-69
2023/11/13 01:26:08;;;;;;;10.23;6.37;;;8.20;99.90;;;;;;4983686;28;20870;-69
2023/11/13 01:28:38;;;;;;;6.63;5.97;;;8.30;99.90;;;;;;4984028;28;20456;-69
2023/11/13 01:31:09;;;;;;;7.60;6.00;;;8.30;99.90;;;;;;4982856;28;20504;-69
2023/11/13 01:33:36;;;;;;;11.57;6.23;;;8.30;99.90;;;;;;4982356;28;20441;-69
2023/11/13 01:36:04;;;;;;;8.97;7.50;;;8.30;99.90;;;;;;4981879;28;20507;-69
2023/11/13 01:38:33;;;;;;;8.90;6.93;;;8.30;99.90;;;;;;4980417;28;20465;-68
2023/11/13 01:41:00;;;;;;;10.63;6.80;;;8.30;99.90;;;;;;4980453;28;20943;-69
2023/11/13 01:43:28;;;;;;;9.30;7.37;;;8.30;99.90;;;;;;4981321;28;20452;-69
2023/11/13 01:45:57;;;;;;;8.00;7.20;;;8.40;99.90;;;;;;4980707;28;20484;-69
2023/11/13 01:48:27;;;;;;;11.40;7.17;;;8.40;99.90;;;;;;4980605;28;20449;-69
2023/11/13 01:50:57;;;;;;;9.23;6.47;;;8.40;99.90;;;;;;4979402;28;20496;-69
2023/11/13 01:53:26;;;;;;;10.00;7.10;;;8.50;99.90;;;;;;4980059;28;20438;-68
2023/11/13 01:55:56;;;;;;;7.97;7.10;;;8.50;99.90;;;;;;4979925;28;20449;-69
2023/11/13 01:58:25;;;;;;;9.60;7.50;;;8.50;99.90;;;;;;4978853;28;20446;-70
2023/11/13 02:00:53;;;;;;;11.40;7.03;;;8.50;99.90;;;;;;4979460;28;20491;-69
2023/11/13 02:03:21;;;;;;;8.07;7.17;;;8.50;99.90;;;;;;4980610;28;20448;-69
2023/11/13 02:05:57;;;;;;;8.90;7.70;;;8.50;99.90;;;;;;4979555;28;20507;-69
2023/11/13 02:08:23;;;;;;;10.97;8.03;;;8.50;99.90;;;;;;4978604;28;20528;-69
2023/11/13 02:10:51;;;;;;;10.87;8.27;;;8.60;99.90;;;;;;4979398;28;20480;-69
2023/11/13 02:13:19;;;;;;;9.73;7.93;;;8.60;99.90;;;;;;4979839;28;20449;-69
2023/11/13 02:15:46;;;;;;;8.63;7.73;;;8.60;99.90;;;;;;4980915;28;20441;-69
2023/11/13 02:18:14;;;;;;;8.37;7.53;;;8.60;99.90;;;;;;4979896;28;20453;-69
2023/11/13 02:20:42;;;;;;;9.80;8.23;;;8.60;99.90;;;;;;4982968;28;20502;-69
2023/11/13 02:23:17;;;;;;;9.80;7.17;;;8.60;99.90;;;;;;4982873;28;20449;-69
2023/11/13 02:25:50;;;;;;;7.90;7.10;;;8.60;99.90;;;;;;4981242;28;21211;-70
2023/11/13 02:28:18;;;;;;;9.13;7.90;;;8.60;99.90;;;;;;4978835;28;20441;-70
2023/11/13 02:30:44;;;;;;;11.00;8.07;;;8.70;99.90;;;;;;4980092;28;20469;-70
2023/11/13 02:33:12;;;;;;;8.00;7.20;;;8.70;99.90;;;;;;4979856;28;20441;-70
2023/11/13 02:35:39;;;;;;;10.40;8.60;;;8.70;99.90;;;;;;4979030;28;20947;-69
2023/11/13 02:38:08;;;;;;;11.80;8.00;;;8.70;99.90;;;;;;4978418;28;20458;-70
2023/11/13 02:40:39;;;;;;;11.53;8.13;;;8.70;99.90;;;;;;4994478;28;20473;-70
2023/11/13 02:43:06;;;;;;;8.67;7.77;;;8.70;99.90;;;;;;4987338;28;20472;-70
2023/11/13 02:45:33;;;;;;;13.30;8.37;;;8.70;99.90;;;;;;4983229;28;20488;-70
2023/11/13 02:48:06;;;;;;;10.53;7.97;;;8.80;99.90;;;;;;4981628;28;20456;-70
2023/11/13 02:50:33;;;;;;;11.53;7.90;;;8.70;99.90;;;;;;4981315;28;20465;-70
2023/11/13 02:53:00;;;;;;;10.47;8.10;;;8.70;99.90;;;;;;4979187;28;20902;-69
2023/11/13 02:55:26;;;;;;;9.10;7.80;;;8.80;99.90;;;;;;4978479;28;20453;-68
2023/11/13 02:57:55;;;;;;;6.90;6.30;;;8.80;99.90;;;;;;4977387;28;20451;-69
2023/11/13 03:00:23;;;;;;;8.50;7.60;;;8.80;99.90;;;;;;4977919;28;20485;-68
2023/11/13 03:02:52;;;;;;;11.03;8.00;;;8.80;99.90;;;;;;4977640;28;20449;-68
2023/11/13 03:05:19;;;;;;;10.33;7.50;;;8.80;99.90;;;;;;4975919;28;20548;-68
2023/11/13 03:07:48;;;;;;;8.67;6.47;;;8.80;99.90;;;;;;4976858;28;20456;-68
2023/11/13 03:10:15;;;;;;;9.73;7.20;;;8.80;99.90;;;;;;4976784;28;20515;-68
2023/11/13 03:12:42;;;;;;;7.83;7.03;;;8.80;99.90;;;;;;4977124;28;20452;-68
2023/11/13 03:15:10;;;;;;;12.00;7.87;;;8.80;99.90;;;;;;4977138;28;20511;-67
2023/11/13 03:17:37;;;;;;;7.70;6.90;;;8.80;99.90;;;;;;4976828;28;20456;-68
2023/11/13 03:20:06;;;;;;;8.73;7.87;;;8.80;99.90;;;;;;4976522;28;20993;-68
2023/11/13 03:22:33;;;;;;;7.27;6.10;;;8.80;99.90;;;;;;4977004;28;20504;-67
2023/11/13 03:25:01;;;;;;;7.90;6.53;;;8.80;99.90;;;;;;4975396;28;20528;-68
2023/11/13 03:27:28;;;;;;;9.67;7.43;;;8.80;99.90;;;;;;4976417;28;20512;-68
2023/11/13 03:29:57;;;;;;;7.53;6.00;;;8.80;99.90;;;;;;4976363;28;20473;-67
2023/11/13 03:32:27;;;;;;;8.47;7.07;;;8.80;99.90;;;;;;4976247;28;20449;-68
2023/11/13 03:34:54;;;;;;;10.83;6.70;;;8.80;99.90;;;;;;4976372;28;20453;-68
2023/11/13 03:37:23;;;;;;;11.90;7.60;;;8.90;99.90;;;;;;4974495;28;20453;-68
2023/11/13 03:39:50;;;;;;;9.47;7.43;;;8.90;99.90;;;;;;4976193;28;20843;-67
2023/11/13 03:42:18;;;;;;;8.70;7.80;;;8.90;99.90;;;;;;4976460;28;20500;-68
2023/11/13 03:44:45;;;;;;;8.10;6.47;;;8.90;99.90;;;;;;4976307;28;20887;-68
2023/11/13 03:47:13;;;;;;;7.63;6.80;;;8.90;99.90;;;;;;4976161;28;20449;-68
2023/11/13 03:49:41;;;;;;;8.57;7.40;;;8.90;99.90;;;;;;4976046;28;20560;-68
2023/11/13 03:52:13;;;;;;;9.73;7.20;;;8.90;99.90;;;;;;4976594;28;20452;-68
2023/11/13 03:54:40;;;;;;;10.50;6.73;;;8.90;99.90;;;;;;4976589;28;20465;-69
2023/11/13 03:57:08;;;;;;;8.80;7.30;;;9.00;99.90;;;;;;4975830;28;20865;-69
2023/11/13 03:59:35;;;;;;;8.23;6.60;;;9.00;99.90;;;;;;4975169;28;20495;-68
2023/11/13 04:02:02;;;;;;;8.23;6.83;;;8.90;99.90;;;;;;4976022;28;20445;-68
2023/11/13 04:04:29;;;;;;;10.43;8.17;;;8.90;99.90;;;;;;4975547;28;20464;-68
2023/11/13 04:06:57;;;;;;;9.57;7.70;;;8.90;99.90;;;;;;4975789;28;21004;-68
2023/11/13 04:09:24;;;;;;;7.30;6.60;;;8.90;99.90;;;;;;4975935;28;20473;-67
2023/11/13 04:11:51;;;;;;;9.33;6.63;;;8.90;99.90;;;;;;4975641;28;20453;-68
2023/11/13 04:14:18;;;;;;;6.30;5.67;;;8.90;99.90;;;;;;4975014;28;20512;-68
2023/11/13 04:16:45;;;;;;;8.60;6.23;;;9.00;99.90;;;;;;4976203;28;20441;-69
2023/11/13 04:19:15;;;;;;;5.37;4.73;;;9.00;99.90;;;;;;4975868;28;20472;-69
2023/11/13 04:21:43;;;;;;;7.20;6.40;;;9.00;99.90;;;;;;4975865;28;20445;-70
2023/11/13 04:24:12;;;;;;;6.83;5.83;;;9.00;99.90;;;;;;4974706;28;20449;-70
2023/11/13 04:26:39;;;;;;;6.13;5.57;;;9.10;99.90;;;;;;4975930;28;20480;-70
2023/11/13 04:29:06;;;;;;;6.77;5.40;;;9.10;99.90;;;;;;4976453;28;20878;-70
2023/11/13 04:31:34;;;;;;;6.50;5.70;;;9.10;99.90;;;;;;4977089;28;20503;-71
2023/11/13 04:34:01;;;;;;;6.13;5.30;;;9.20;99.90;;;;;;4976710;28;20450;-70
2023/11/13 04:36:28;;;;;;;6.07;5.47;;;9.20;99.90;;;;;;4976486;28;20541;-70
2023/11/13 04:38:54;;;;;;;7.03;6.27;;;9.20;99.90;;;;;;4975017;28;20535;-70
2023/11/13 04:41:29;;;;;;;8.83;7.23;;;9.20;99.90;;;;;;4975821;28;20445;-71
2023/11/13 04:43:57;;;;;;;7.57;6.27;;;9.20;99.90;;;;;;4975636;28;20496;-70
2023/11/13 04:46:32;;;;;;;7.70;6.93;;;9.30;99.90;;;;;;4975279;28;20484;-71
2023/11/13 04:48:59;;;;;;;8.57;7.07;;;9.30;99.90;;;;;;4976305;28;20465;-71
2023/11/13 04:54:07;;;;;;;9.20;7.27;;;9.30;99.90;;;;;;4986269;28;20422;-70
2023/11/13 04:56:35;;;;;;;9.47;7.47;;;9.30;99.90;;;;;;4994865;28;20528;-71
2023/11/13 04:59:03;;;;;;;10.37;7.27;;;9.30;99.90;;;;;;4988311;28;20476;-71
2023/11/13 05:01:31;;;;;;;9.40;6.60;;;9.30;99.90;;;;;;4989859;28;20459;-70
2023/11/13 05:03:59;;;;;;;11.57;7.60;;;9.30;99.90;;;;;;4983901;28;20503;-70
2023/11/13 05:06:27;;;;;;;9.70;8.53;;;9.40;99.90;;;;;;4981031;28;20492;-71
2023/11/13 05:08:54;;;;;;;9.67;8.67;;;9.40;99.90;;;;;;4980100;28;20528;-71
2023/11/13 05:11:22;;;;;;;15.20;9.33;;;9.40;99.90;;;;;;4979469;28;20807;-71
2023/11/13 05:13:51;;;;;;;9.13;8.20;;;9.40;99.90;;;;;;4978488;28;20973;-71
2023/11/13 05:16:20;;;;;;;10.80;7.70;;;9.40;99.90;;;;;;4978799;28;20445;-71
2023/11/13 05:18:47;;;;;;;14.40;7.87;;;9.40;99.90;;;;;;4976752;28;20958;-70
2023/11/13 05:21:15;;;;;;;8.30;7.50;;;9.40;99.90;;;;;;4976561;28;20943;-70
2023/11/13 05:23:42;;;;;;;8.83;6.63;;;9.40;99.90;;;;;;4960424;28;20453;-71
2023/11/13 05:26:08;;;;;;;7.70;6.60;;;9.40;99.90;;;;;;4976540;28;20484;-71
2023/11/13 05:28:37;;;;;;;8.20;5.43;;;9.40;99.90;;;;;;4976952;28;20451;-70
2023/11/13 05:31:10;;;;;;;6.80;5.80;;;9.40;99.90;;;;;;4959402;28;20449;-71
2023/11/13 05:33:40;;;;;;;5.93;4.80;;;9.50;99.90;;;;;;4975763;28;20531;-71
2023/11/13 05:36:08;;;;;;;8.80;5.57;;;9.40;99.90;;;;;;4976700;28;20441;-70
2023/11/13 05:38:36;;;;;;;9.17;5.93;;;9.40;99.90;;;;;;4976531;28;20449;-71
2023/11/13 05:41:04;;;;;;;6.20;5.17;;;9.40;99.90;;;;;;4978502;28;20801;-71
2023/11/13 05:43:31;;;;;;;6.70;5.67;;;9.40;99.90;;;;;;4977750;28;20457;-71
2023/11/13 05:46:00;;;;;;;5.00;4.50;;;9.40;99.90;;;;;;4977945;28;20487;-70
2023/11/13 05:48:28;;;;;;;6.33;4.90;;;9.40;99.90;;;;;;4978805;28;20854;-70
2023/11/13 05:50:56;;;;;;;8.50;5.30;;;9.40;99.90;;;;;;4977979;28;20453;-70
2023/11/13 05:53:24;;;;;;;5.30;4.73;;;9.40;99.90;;;;;;4981277;28;20445;-71
2023/11/13 05:55:51;;;;;;;10.20;5.30;;;9.40;99.90;;;;;;4980786;28;20445;-71
2023/11/13 05:58:18;;;;;;;6.53;5.23;;;9.40;99.90;;;;;;4979849;28;20461;-71
2023/11/13 06:00:45;;;;;;;6.10;4.97;;;9.40;99.90;;;;;;4980926;28;20473;-71
2023/11/13 06:03:12;;;;;;;10.00;6.13;;;9.50;99.90;;;;;;4980019;28;20536;-71
2023/11/13 06:05:41;;;;;;;8.33;5.00;;;9.50;99.90;;;;;;4979593;28;20943;-70
2023/11/13 06:08:09;;;;;;;7.17;5.00;;;9.60;99.90;;;;;;4979987;28;20449;-70
2023/11/13 06:10:37;;;;;;;5.80;4.70;;;9.60;99.90;;;;;;4982371;28;20894;-69
2023/11/13 06:13:05;;;;;;;5.50;4.90;;;9.60;99.90;;;;;;4998485;28;20456;-70
2023/11/13 06:15:32;;;;;;;10.27;5.03;;;9.60;99.90;;;;;;4998766;28;20452;-70
2023/11/13 06:17:59;;;;;;;6.40;4.40;;;9.60;99.90;;;;;;4997751;28;20448;-70
2023/11/13 06:20:28;;;;;;;8.83;5.47;;;9.60;99.90;;;;;;4997293;28;20989;-69
2023/11/13 06:22:56;;;;;;;7.60;4.33;;;9.70;99.90;;;;;;4997309;28;20451;-68
2023/11/13 06:25:24;;;;;;;11.30;5.60;;;9.70;99.90;;;;;;4995454;28;20455;-69
2023/11/13 06:27:52;;;;;;;15.13;5.10;;;9.70;99.90;;;;;;4996388;28;20861;-69
2023/11/13 06:30:19;;;;;;;11.50;4.80;;;9.70;99.90;;;;;;4995499;28;20907;-69
2023/11/13 06:32:48;;;;;;;17.60;4.93;;;9.80;99.90;;;;;;4996646;28;20459;-68
2023/11/13 06:35:15;;;;;;;16.00;6.10;;;9.80;99.90;;;;;;4996004;28;20452;-68
2023/11/13 06:37:43;;;;;;;17.57;5.70;;;9.90;99.90;;;;;;4996483;28;20444;-68
2023/11/13 06:40:16;;;;;;;14.20;4.70;;;10.00;99.90;;;;;;4996031;28;20809;-69
2023/11/13 06:42:44;;;;;;;14.67;6.00;;;10.00;99.90;;;;;;4996316;28;20475;-67
2023/11/13 06:45:11;;;;;;;12.43;5.87;;;10.00;99.90;;;;;;4996140;28;21057;-68
2023/11/13 06:47:40;;;;;;;13.40;4.70;;;10.10;99.90;;;;;;4996159;28;20832;-68
2023/11/13 06:50:08;;;;;;;13.00;5.30;;;10.20;99.90;;;;;;4996095;28;20476;-68
2023/11/13 06:52:35;;;;;;;16.80;5.47;;;10.20;99.90;;;;;;4995715;28;20520;-68
2023/11/13 06:55:01;;;;;;;19.63;5.77;;;10.20;99.90;;;;;;4995872;28;20452;-68
2023/11/13 06:57:30;;;;;;;14.40;5.47;;;10.20;99.90;;;;;;4995596;28;20440;-68
2023/11/13 06:59:56;;;;;;;18.73;7.63;;;10.30;99.90;;;;;;4995808;28;20471;-68
2023/11/13 07:02:27;;;;;;;20.97;5.70;;;10.30;99.90;;;;;;4995419;28;20451;-68
2023/11/13 07:04:54;;;;;;;9.93;4.47;;;10.30;99.90;;;;;;4995539;28;20467;-68
2023/11/13 07:07:21;;;;;;;14.30;4.83;;;10.40;99.90;;;;;;5002287;28;20483;-68
2023/11/13 07:09:48;;;;;;;16.83;4.20;;;10.40;99.90;;;;;;5004783;28;20488;-68
2023/11/13 07:12:15;;;;;;;16.53;4.17;;;10.50;99.90;;;;;;4998781;28;20457;-68
2023/11/13 07:14:44;;;;;;;14.90;5.10;;;10.50;99.90;;;;;;4997396;28;20459;-68
2023/11/13 07:17:11;;;;;;;19.20;4.37;;;10.50;99.90;;;;;;4996281;28;20440;-68
2023/11/13 07:19:38;;;;;;;12.03;3.70;;;10.60;99.90;;;;;;4996583;28;20468;-68
2023/11/13 07:22:06;;;;;;;23.77;4.50;;;10.60;99.90;;;;;;4996326;28;20480;-68
2023/11/13 07:24:36;;;;;;;18.20;4.30;;;10.70;99.90;;;;;;4996357;28;20518;-68
2023/11/13 07:27:03;;;;;;;10.83;3.70;;;10.70;99.90;;;;;;4995632;28;20487;-68
2023/11/13 07:29:31;;;;;;;8.67;2.87;;;10.70;99.90;;;;;;4995573;28;20468;-68
2023/11/13 07:32:01;;;;;;;19.37;3.50;;;10.70;99.90;;;;;;4995378;28;20970;-68
2023/11/13 07:34:28;;;;;;;12.17;3.47;;;10.80;99.90;;;;;;4995650;28;20433;-68
2023/11/13 07:36:55;;;;;;;13.23;3.23;;;10.80;99.90;;;;;;5001230;28;20437;-68
2023/11/13 07:39:26;;;;;;;9.53;3.43;;;10.90;99.90;;;;;;5005074;28;20464;-68
2023/11/13 07:41:53;;;;;;;9.90;3.33;;;10.90;99.90;;;;;;4997571;28;20502;-68
2023/11/13 07:44:19;;;;;;;12.37;4.10;;;10.90;99.90;;;;;;4996732;28;20476;-68
2023/11/13 07:46:48;;;;;;;13.10;4.27;;;10.90;99.90;;;;;;4995619;28;20506;-68
2023/11/13 07:49:17;;;;;;;13.67;3.40;;;11.00;99.90;;;;;;4995053;28;20467;-68
2023/11/13 07:51:44;;;;;;;12.00;3.47;;;11.00;99.90;;;;;;4994705;28;20452;-68
2023/11/13 07:54:11;;;;;;;15.43;3.30;;;11.00;99.90;;;;;;4995620;28;20452;-68
2023/11/13 07:56:38;;;;;;;14.50;3.20;;;11.00;99.90;;;;;;4994689;28;20942;-68
2023/11/13 07:59:07;;;;;;;10.53;3.90;;;11.00;99.90;;;;;;4994756;28;20461;-68
2023/11/13 08:01:34;;;;;;;11.87;3.60;;;11.00;99.90;;;;;;4994912;28;20480;-68
2023/11/13 08:04:02;;;;;;;7.47;3.87;;;11.10;99.90;;;;;;4993627;28;20488;-68
2023/11/13 08:06:31;;;;;;;15.10;4.93;;;11.10;99.90;;;;;;4994366;28;20491;-68
2023/11/13 08:08:57;;;;;;;8.00;3.00;;;11.10;99.90;;;;;;4994631;28;20502;-68
2023/11/13 08:11:24;;;;;;;7.77;2.90;;;11.10;99.90;;;;;;4993577;28;20451;-68
2023/11/13 08:13:51;;;;;;;12.17;3.13;;;11.20;99.90;;;;;;4994055;28;20860;-68
2023/11/13 08:16:18;;;;;;;13.10;3.57;;;11.20;99.90;;;;;;4994154;28;20470;-69
2023/11/13 08:18:47;;;;;;;15.40;3.20;;;11.10;99.90;;;;;;4993465;28;20879;-68
2023/11/13 08:21:15;;;;;;;9.27;2.77;;;11.10;99.90;;;;;;4994598;28;20444;-69
2023/11/13 08:23:43;;;;;;;11.37;3.93;;;11.10;99.90;;;;;;4994892;28;20452;-68
2023/11/13 08:26:10;;;;;;;9.70;4.10;;;11.10;99.90;;;;;;4994501;28;20448;-68
2023/11/13 08:28:37;;;;;;;11.47;3.13;;;11.10;99.90;;;;;;4993343;28;20498;-68
2023/11/13 08:31:05;;;;;;;8.97;3.03;;;11.10;99.90;;;;;;4995080;28;20452;-68
2023/11/13 08:33:32;;;;;;;11.53;2.97;;;11.10;99.90;;;;;;5000715;28;20444;-68
2023/11/13 08:36:00;;;;;;;8.30;3.30;;;11.10;99.90;;;;;;5002049;28;20452;-68
2023/11/13 08:38:27;;;;;;;9.87;3.80;;;11.10;99.90;;;;;;5001527;28;20444;-68
2023/11/13 08:40:56;;;;;;;11.00;2.70;;;11.00;99.90;;;;;;5000900;28;20464;-69
2023/11/13 08:43:25;;;;;;;8.27;2.80;;;11.00;99.90;;;;;;5001356;28;20456;-69
2023/11/13 08:45:53;;;;;;;10.10;2.60;;;11.00;99.90;;;;;;5000584;28;20444;-69
2023/11/13 08:48:21;;;;;;;8.37;3.03;;;10.90;99.90;;;;;;5000268;28;20516;-69
2023/11/13 08:50:53;;;;;;;8.80;2.80;;;10.90;99.90;;;;;;4998776;28;20472;-69
2023/11/13 08:53:20;;;;;;;8.23;3.33;;;10.90;99.90;;;;;;4998160;28;20459;-69
2023/11/13 08:55:47;;;;;;;7.77;2.60;;;10.90;99.90;;;;;;4997922;28;20449;-69
2023/11/13 08:58:15;;;;;;;7.43;2.10;;;10.90;99.90;;;;;;4997066;28;20447;-69
2023/11/13 09:00:43;;;;;;;8.97;2.63;;;10.90;99.90;;;;;;4997645;28;20468;-69
2023/11/13 09:03:12;;;;;;;5.70;2.13;;;10.90;99.90;;;;;;4996122;28;20809;-69
2023/11/13 09:05:39;;;;;;;10.23;2.47;;;11.00;99.90;;;;;;4994590;28;20539;-69
2023/11/13 09:08:08;;;;;;;6.60;3.30;;;10.90;99.90;;;;;;4995046;28;20486;-68
2023/11/13 09:10:36;;;;;;;7.73;2.67;;;10.90;99.90;;;;;;4995019;28;20472;-68
2023/11/13 09:13:05;;;;;;;8.40;2.30;;;10.90;99.90;;;;;;4993687;28;20448;-68
2023/11/13 09:15:35;;;;;;;6.97;2.50;;;10.90;99.90;;;;;;4994868;28;20463;-69
2023/11/13 09:18:05;;;;;;;4.33;1.70;;;10.90;99.90;;;;;;4995034;28;20452;-68
2023/11/13 09:20:32;;;;;;;3.27;1.40;;;10.90;99.90;;;;;;4997846;28;20474;-69
2023/11/13 09:23:01;;;;;;;4.60;1.40;;;10.90;99.90;;;;;;5006043;28;20480;-69
2023/11/13 09:25:31;;;;;;;7.70;2.13;;;11.00;99.90;;;;;;4999868;28;20456;-69
2023/11/13 09:27:59;;;;;;;4.60;1.90;;;11.00;99.90;;;;;;5000293;28;20503;-69
2023/11/13 09:30:26;;;;;;;3.90;1.67;;;11.00;99.90;;;;;;4999832;28;20468;-69
2023/11/13 09:32:56;;;;;;;5.17;1.60;;;11.00;99.90;;;;;;5001009;28;20498;-69
2023/11/13 09:35:24;;;;;;;5.97;1.50;;;11.10;99.90;;;;;;4999612;28;20977;-69
2023/11/13 09:37:53;;;;;;;4.70;2.00;;;11.10;99.90;;;;;;4999940;28;20456;-69
2023/11/13 09:40:22;;;;;;;2.63;1.10;;;11.10;99.90;;;;;;4999006;28;20475;-70
2023/11/13 09:42:53;;;;;;;8.47;1.67;;;11.10;99.90;;;;;;4999598;28;20456;-69
2023/11/13 09:45:23;;;;;;;2.90;1.30;;;11.10;99.90;;;;;;4998957;28;20452;-69
2023/11/13 09:47:59;;;;;;;3.47;1.60;;;11.10;99.90;;;;;;4998687;28;20483;-70
2023/11/13 09:50:28;;;;;;;4.97;1.60;;;11.10;99.90;;;;;;4996665;28;20538;-70
2023/11/13 09:52:59;;;;;;;3.13;1.70;;;11.10;99.90;;;;;;4998847;28;20444;-70
2023/11/13 09:55:27;;;;;;;2.63;1.33;;;11.20;99.90;;;;;;4998068;28;20452;-70
2023/11/13 09:57:55;;;;;;;2.67;1.27;;;11.20;99.90;;;;;;4998470;28;20440;-70
2023/11/13 10:00:24;;;;;;;5.43;1.37;;;11.30;99.90;;;;;;4998105;28;20880;-70
2023/11/13 10:02:52;;;;;;;2.87;1.20;;;11.30;99.90;;;;;;4998434;28;20487;-70
2023/11/13 10:05:26;;;;;;;2.20;1.17;;;11.30;99.90;;;;;;4997102;28;20487;-70
2023/11/13 10:07:56;;;;;;;2.00;1.43;;;11.40;99.90;;;;;;4997708;28;20476;-70
2023/11/13 10:10:24;;;;;;;6.70;2.00;;;11.40;99.90;;;;;;4998102;28;20483;-70
2023/11/13 10:12:53;;;;;;;2.80;1.67;;;11.50;99.90;;;;;;4998621;28;20448;-69
2023/11/13 10:15:27;;;;;;;3.10;1.30;;;11.50;99.90;;;;;;4998032;28;20934;-70
2023/11/13 10:17:56;;;;;;;2.50;1.00;;;11.50;99.90;;;;;;5003086;28;20535;-70
2023/11/13 10:20:25;;;;;;;2.80;1.13;;;11.50;99.90;;;;;;5005142;28;20997;-69
2023/11/13 10:23:04;;;;;;;3.33;1.40;;;11.60;99.90;;;;;;4999164;28;20491;-70
2023/11/13 10:25:41;;;;;;;1.80;1.30;;;11.60;99.90;;;;;;4998661;28;20519;-71
2023/11/13 10:28:09;;;;;;;3.13;1.73;;;11.70;99.90;;;;;;4998441;28;20472;-70
2023/11/13 10:30:59;;;;;;;2.20;1.60;;;11.80;99.90;;;;;;4997363;28;20530;-70
2023/11/13 10:33:29;;;;;;;2.63;1.30;;;11.80;99.90;;;;;;4998378;28;20440;-71
2023/11/13 10:36:04;;;;;;;1.63;1.10;;;11.80;99.90;;;;;;4997817;28;20445;-71
2023/11/13 10:38:43;;;;;;;2.57;1.30;;;11.90;99.90;;;;;;4996734;28;20428;-71
2023/11/13 10:41:12;;;;;;;2.30;1.30;;;11.90;99.90;;;;;;4998014;28;20475;-71
2023/11/13 10:43:40;;;;;;;3.13;1.17;;;11.90;99.90;;;;;;4997215;28;20463;-71
2023/11/13 10:46:09;;;;;;;2.07;1.10;;;12.00;99.90;;;;;;4997220;28;20455;-69
2023/11/13 10:48:50;;;;;;;2.43;1.17;;;12.00;99.90;;;;;;4996466;28;20484;-70
2023/11/13 10:51:18;;;;;;;3.83;1.40;;;12.00;99.90;;;;;;4997112;28;20437;-70
2023/11/13 10:53:49;;;;;;;3.93;1.37;;;12.00;99.90;;;;;;4996967;28;20460;-70
2023/11/13 10:56:16;;;;;;;1.47;1.37;;;11.90;99.90;;;;;;4996450;28;20456;-70
2023/11/13 10:58:43;;;;;;;2.33;1.30;;;11.90;99.90;;;;;;4996791;28;20942;-71
2023/11/13 11:01:13;;;;;;;4.07;1.20;;;12.00;99.90;;;;;;4996592;28;20890;-71
2023/11/13 11:03:45;;;;;;;3.27;1.63;;;12.00;99.90;;;;;;4995379;28;20454;-71
2023/11/13 11:06:19;;;;;;;5.10;1.93;;;12.10;99.90;;;;;;4995724;28;20460;-70
2023/11/13 11:08:50;;;;;;;4.47;1.33;;;12.10;99.90;;;;;;4996752;28;20567;-71
2023/11/13 11:11:24;;;;;;;4.03;1.30;;;12.20;99.90;;;;;;4997333;28;20448;-71
2023/11/13 11:13:58;;;;;;;2.57;0.97;;;12.20;99.90;;;;;;4997866;28;20433;-71
2023/11/13 11:16:35;;;;;;;4.70;1.33;;;12.20;99.90;;;;;;4997349;28;20425;-71
2023/11/13 11:19:17;;;;;;;1.37;1.27;;;12.20;99.90;;;;;;4997042;28;20472;-71
2023/11/13 11:22:00;;;;;;;2.17;1.40;;;12.20;99.90;;;;;;4995527;28;20422;-71
2023/11/13 11:24:48;;;;;;;2.80;1.70;;;12.20;99.90;;;;;;4996692;28;20484;-71
2023/11/13 11:27:34;;;;;;;3.17;1.83;;;12.30;99.90;;;;;;4995171;28;20472;-71
2023/11/13 11:30:01;;;;;;;3.13;1.47;;;12.40;99.90;;;;;;4997097;28;20468;-71
2023/11/13 11:32:31;;;;;;;3.40;1.57;;;12.50;99.90;;;;;;4997887;28;20502;-70
2023/11/13 11:35:02;;;;;;;3.87;1.70;;;12.50;99.90;;;;;;5004795;28;20479;-71
2023/11/13 11:37:29;;;;;;;5.97;1.83;;;12.60;99.90;;;;;;5001264;28;20455;-71
2023/11/13 11:40:03;;;;;;;2.00;1.60;;;12.60;99.90;;;;;;5000132;28;20579;-71
2023/11/13 11:42:32;;;;;;;6.80;2.00;;;12.70;99.90;;;;;;4998656;28;20456;-71
2023/11/13 11:45:02;;;;;;;3.63;1.80;;;12.70;99.90;;;;;;4996963;28;20842;-71
2023/11/13 11:47:30;;;;;;;6.10;2.10;;;12.70;99.90;;;;;;4996642;28;20495;-73
2023/11/13 11:49:58;;;;;;;12.57;3.10;;;12.80;99.90;;;;;;4995299;28;20471;-68
2023/11/13 11:52:43;;;;;;;6.90;2.80;;;12.80;99.90;;;;;;4995464;28;20451;-68
2023/11/13 11:55:12;;;;;;;9.13;2.20;;;12.90;99.90;;;;;;4995946;28;20479;-69
2023/11/13 11:57:43;;;;;;;6.77;1.80;;;13.00;99.90;;;;;;4995691;28;20765;-69
2023/11/13 12:00:15;;;;;;;4.07;1.63;;;13.10;99.90;;;;;;4995039;28;20488;-70
2023/11/13 12:02:42;;;;;;;6.67;2.60;;;13.10;99.90;;;;;;4997291;28;20996;-69
2023/11/13 12:05:09;;;;;;;8.97;2.87;;;13.20;99.90;;;;;;4996681;28;20502;-69
2023/11/13 12:07:36;;;;;;;7.63;2.23;;;13.20;99.90;;;;;;4996440;28;20542;-69
2023/11/13 12:10:05;;;;;;;5.90;2.40;;;13.30;99.90;;;;;;4995781;28;20471;-69
2023/11/13 12:12:35;;;;;;;5.80;2.20;;;13.30;99.90;;;;;;4996100;28;20445;-69
2023/11/13 12:15:04;;;;;;;9.47;2.40;;;13.30;99.90;;;;;;4995419;28;20907;-69
2023/11/13 12:17:33;;;;;;;4.37;1.90;;;13.40;99.90;;;;;;4995313;28;20503;-69
2023/11/13 12:20:00;;;;;;;6.23;1.93;;;13.40;99.90;;;;;;4994746;28;20496;-68
2023/11/13 12:22:28;;;;;;;4.27;2.03;;;13.40;99.90;;;;;;4995007;28;20455;-69
2023/11/13 12:24:56;;;;;;;3.33;2.03;;;13.50;99.90;;;;;;4995210;28;20972;-69
2023/11/13 12:27:25;;;;;;;5.00;2.20;;;13.60;99.90;;;;;;4994954;28;20455;-70
2023/11/13 12:30:05;;;;;;;4.67;1.80;;;13.60;99.90;;;;;;4995554;28;20507;-70
2023/11/13 12:32:35;;;;;;;2.80;1.90;;;13.70;99.90;;;;;;4995653;28;20510;-70
2023/11/13 12:35:06;;;;;;;6.13;2.30;;;13.90;99.90;;;;;;4995941;28;20447;-71
2023/11/13 12:37:33;;;;;;;3.80;1.87;;;13.90;99.90;;;;;;4995851;28;20483;-71
2023/11/13 12:40:00;;;;;;;5.83;1.40;;;14.10;99.90;;;;;;4994376;28;20948;-70
2023/11/13 12:42:29;;;;;;;3.60;1.80;;;14.10;99.90;;;;;;4995850;28;20454;-71
2023/11/13 12:44:55;;;;;;;8.43;1.97;;;14.20;99.90;;;;;;4995603;28;20448;-70
2023/11/13 12:47:27;;;;;;;3.40;1.60;;;14.30;99.90;;;;;;4995278;28;20823;-70
2023/11/13 12:49:55;;;;;;;3.47;1.50;;;14.30;99.90;;;;;;4995538;28;20471;-71
2023/11/13 12:52:22;;;;;;;2.87;1.10;;;14.40;99.90;;;;;;4995756;28;20866;-71
2023/11/13 12:54:50;;;;;;;3.93;2.40;;;14.40;99.90;;;;;;4994747;28;20444;-70
2023/11/13 12:57:18;;;;;;;2.10;1.33;;;14.50;99.90;;;;;;4998695;28;20538;-70
2023/11/13 12:59:46;;;;;;;6.97;2.10;;;14.50;99.90;;;;;;5006639;28;20472;-70
2023/11/13 13:02:15;;;;;;;3.43;1.43;;;14.60;99.90;;;;;;5002414;28;20452;-70